sensor_id;sensor_type;location;lat;lon;timestamp;pressure;altitude;pressure_sealevel;temperature;humidity
53041;BME280;39326;42.650;23.248;2023-03-15T00:01:01;91576.09;;;3.66;52.21
53041;BME280;39326;42.650;23.248;2023-03-15T00:03:27;91573.41;;;3.58;52.42
53041;BME280;39326;42.650;23.248;2023-03-15T00:05:53;91568.47;;;3.53;53.02
53041;BME280;39326;42.650;23.248;2023-03-15T00:08:18;91571.50;;;3.55;52.91
53041;BME280;39326;42.650;23.248;2023-03-15T00:10:45;91576.44;;;3.60;52.71
53041;BME280;39326;42.650;23.248;2023-03-15T00:13:11;91578.72;;;3.62;53.00
53041;BME280;39326;42.650;23.248;2023-03-15T00:15:47;91574.16;;;3.55;53.08
53041;BME280;39326;42.650;23.248;2023-03-15T00:18:13;91576.03;;;3.55;53.57
53041;BME280;39326;42.650;23.248;2023-03-15T00:20:39;91575.34;;;3.65;52.64
53041;BME280;39326;42.650;23.248;2023-03-15T00:23:05;91575.78;;;3.71;52.89
53041;BME280;39326;42.650;23.248;2023-03-15T00:25:30;91572.03;;;3.72;52.92
53041;BME280;39326;42.650;23.248;2023-03-15T00:27:56;91570.88;;;3.69;53.37
53041;BME280;39326;42.650;23.248;2023-03-15T00:30:21;91565.22;;;3.67;53.00
53041;BME280;39326;42.650;23.248;2023-03-15T00:32:46;91569.72;;;3.67;53.30
53041;BME280;39326;42.650;23.248;2023-03-15T00:35:12;91563.25;;;3.60;53.69
53041;BME280;39326;42.650;23.248;2023-03-15T00:37:37;91560.38;;;3.76;52.80
53041;BME280;39326;42.650;23.248;2023-03-15T00:40:04;91554.38;;;3.79;53.30
53041;BME280;39326;42.650;23.248;2023-03-15T00:42:31;91555.50;;;3.78;52.86
53041;BME280;39326;42.650;23.248;2023-03-15T00:44:58;91548.38;;;3.82;53.22
53041;BME280;39326;42.650;23.248;2023-03-15T00:47:23;91547.69;;;3.89;52.94
53041;BME280;39326;42.650;23.248;2023-03-15T00:49:49;91538.63;;;3.86;52.98
53041;BME280;39326;42.650;23.248;2023-03-15T00:52:15;91546.94;;;3.88;53.09
53041;BME280;39326;42.650;23.248;2023-03-15T00:54:41;91534.13;;;3.91;52.78
53041;BME280;39326;42.650;23.248;2023-03-15T00:57:07;91528.09;;;3.90;52.24
53041;BME280;39326;42.650;23.248;2023-03-15T00:59:33;91531.91;;;3.93;52.86
53041;BME280;39326;42.650;23.248;2023-03-15T01:02:02;91524.31;;;3.91;53.40
53041;BME280;39326;42.650;23.248;2023-03-15T01:04:28;91520.59;;;3.92;53.11
53041;BME280;39326;42.650;23.248;2023-03-15T01:06:55;91530.03;;;3.97;53.69
53041;BME280;39326;42.650;23.248;2023-03-15T01:09:21;91523.66;;;4.01;53.48
53041;BME280;39326;42.650;23.248;2023-03-15T01:11:46;91525.97;;;4.10;53.57
53041;BME280;39326;42.650;23.248;2023-03-15T01:14:12;91512.78;;;4.10;53.28
53041;BME280;39326;42.650;23.248;2023-03-15T01:16:37;91520.31;;;4.08;53.60
53041;BME280;39326;42.650;23.248;2023-03-15T01:19:03;91515.41;;;4.10;53.46
53041;BME280;39326;42.650;23.248;2023-03-15T01:21:28;91508.31;;;4.14;53.76
53041;BME280;39326;42.650;23.248;2023-03-15T01:23:53;91510.22;;;4.13;53.66
53041;BME280;39326;42.650;23.248;2023-03-15T01:26:19;91501.94;;;4.19;53.40
53041;BME280;39326;42.650;23.248;2023-03-15T01:28:45;91507.63;;;4.28;52.76
53041;BME280;39326;42.650;23.248;2023-03-15T01:31:24;91496.38;;;4.34;52.51
53041;BME280;39326;42.650;23.248;2023-03-15T01:33:50;91474.09;;;4.25;52.49
53041;BME280;39326;42.650;23.248;2023-03-15T01:36:16;91489.19;;;4.35;52.69
53041;BME280;39326;42.650;23.248;2023-03-15T01:38:41;91483.13;;;4.24;52.57
53041;BME280;39326;42.650;23.248;2023-03-15T01:41:09;91492.94;;;4.27;53.61
53041;BME280;39326;42.650;23.248;2023-03-15T01:43:35;91485.41;;;4.25;53.32
53041;BME280;39326;42.650;23.248;2023-03-15T01:49:10;91483.13;;;4.24;53.39
53041;BME280;39326;42.650;23.248;2023-03-15T01:54:40;91473.94;;;4.03;53.69
53041;BME280;39326;42.650;23.248;2023-03-15T02:00:29;91460.38;;;4.05;52.66
53041;BME280;39326;42.650;23.248;2023-03-15T02:02:39;91455.03;;;3.98;53.16
53041;BME280;39326;42.650;23.248;2023-03-15T02:05:14;91449.72;;;3.91;53.95
53041;BME280;39326;42.650;23.248;2023-03-15T02:07:42;91438.44;;;3.90;53.38
53041;BME280;39326;42.650;23.248;2023-03-15T02:10:16;91443.72;;;3.90;53.63
53041;BME280;39326;42.650;23.248;2023-03-15T02:12:46;91438.81;;;3.88;53.30
53041;BME280;39326;42.650;23.248;2023-03-15T02:15:15;91442.94;;;3.89;53.26
53041;BME280;39326;42.650;23.248;2023-03-15T02:17:44;91439.56;;;3.89;53.40
53041;BME280;39326;42.650;23.248;2023-03-15T02:22:56;91434.63;;;3.80;53.94
53041;BME280;39326;42.650;23.248;2023-03-15T02:28:09;91424.81;;;3.81;54.17
53041;BME280;39326;42.650;23.248;2023-03-15T02:30:36;91431.69;;;3.93;54.18
53041;BME280;39326;42.650;23.248;2023-03-15T02:33:05;91425.63;;;3.88;54.34
53041;BME280;39326;42.650;23.248;2023-03-15T02:35:32;91427.13;;;3.86;53.87
53041;BME280;39326;42.650;23.248;2023-03-15T02:37:58;91425.63;;;3.88;54.84
53041;BME280;39326;42.650;23.248;2023-03-15T02:40:25;91429.38;;;3.91;55.03
53041;BME280;39326;42.650;23.248;2023-03-15T02:42:54;91426.34;;;3.85;54.95
53041;BME280;39326;42.650;23.248;2023-03-15T02:45:21;91414.31;;;3.88;55.57
53041;BME280;39326;42.650;23.248;2023-03-15T02:47:48;91421.03;;;3.78;55.74
53041;BME280;39326;42.650;23.248;2023-03-15T02:50:13;91419.53;;;3.74;55.53
53041;BME280;39326;42.650;23.248;2023-03-15T02:52:39;91415.69;;;3.64;56.42
53041;BME280;39326;42.650;23.248;2023-03-15T02:55:05;91417.19;;;3.61;55.59
53041;BME280;39326;42.650;23.248;2023-03-15T02:57:30;91414.50;;;3.58;56.26
53041;BME280;39326;42.650;23.248;2023-03-15T02:59:56;91417.88;;;3.55;56.10
53041;BME280;39326;42.650;23.248;2023-03-15T03:02:22;91417.19;;;3.61;55.74
53041;BME280;39326;42.650;23.248;2023-03-15T03:04:48;91409.63;;;3.60;55.68
53041;BME280;39326;42.650;23.248;2023-03-15T03:07:13;91394.47;;;3.43;56.14
53041;BME280;39326;42.650;23.248;2023-03-15T03:09:39;91400.41;;;3.32;55.84
53041;BME280;39326;42.650;23.248;2023-03-15T03:12:04;91388.25;;;3.17;56.89
53041;BME280;39326;42.650;23.248;2023-03-15T03:14:30;91396.50;;;3.16;57.36
53041;BME280;39326;42.650;23.248;2023-03-15T03:16:55;91387.13;;;3.18;56.08
53041;BME280;39326;42.650;23.248;2023-03-15T03:19:21;91397.28;;;3.20;56.64
53041;BME280;39326;42.650;23.248;2023-03-15T03:21:53;91395.84;;;3.26;56.15
53041;BME280;39326;42.650;23.248;2023-03-15T03:24:19;91399.59;;;3.25;56.11
53041;BME280;39326;42.650;23.248;2023-03-15T03:26:44;91392.06;;;3.27;56.25
53041;BME280;39326;42.650;23.248;2023-03-15T03:29:10;91389.81;;;3.29;56.02
53041;BME280;39326;42.650;23.248;2023-03-15T03:31:36;91384.63;;;3.40;56.46
53041;BME280;39326;42.650;23.248;2023-03-15T03:34:01;91385.75;;;3.39;55.62
53041;BME280;39326;42.650;23.248;2023-03-15T03:36:27;91376.34;;;3.38;56.34
53041;BME280;39326;42.650;23.248;2023-03-15T03:38:52;91372.25;;;3.47;56.07
53041;BME280;39326;42.650;23.248;2023-03-15T03:41:19;91373.09;;;3.55;55.50
53041;BME280;39326;42.650;23.248;2023-03-15T03:43:45;91373.44;;;3.53;55.46
53041;BME280;39326;42.650;23.248;2023-03-15T03:46:11;91371.53;;;3.50;55.86
53041;BME280;39326;42.650;23.248;2023-03-15T03:48:36;91373.00;;;3.48;56.79
53041;BME280;39326;42.650;23.248;2023-03-15T03:51:01;91363.97;;;3.45;56.33
53041;BME280;39326;42.650;23.248;2023-03-15T03:53:27;91360.97;;;3.43;56.20
53041;BME280;39326;42.650;23.248;2023-03-15T03:55:52;91355.28;;;3.41;57.35
53041;BME280;39326;42.650;23.248;2023-03-15T03:58:19;91357.56;;;3.46;56.73
53041;BME280;39326;42.650;23.248;2023-03-15T04:00:44;91354.22;;;3.49;57.39
53041;BME280;39326;42.650;23.248;2023-03-15T04:03:10;91356.06;;;3.45;57.04
53041;BME280;39326;42.650;23.248;2023-03-15T04:05:35;91346.66;;;3.44;57.11
53041;BME280;39326;42.650;23.248;2023-03-15T04:08:01;91352.31;;;3.46;57.18
53041;BME280;39326;42.650;23.248;2023-03-15T04:10:26;91345.16;;;3.43;57.39
53041;BME280;39326;42.650;23.248;2023-03-15T04:12:56;91349.28;;;3.48;57.95
53041;BME280;39326;42.650;23.248;2023-03-15T04:15:22;91347.06;;;3.53;56.98
53041;BME280;39326;42.650;23.248;2023-03-15T04:17:49;91352.34;;;3.53;57.08
53041;BME280;39326;42.650;23.248;2023-03-15T04:20:21;91356.00;;;3.34;58.72
53041;BME280;39326;42.650;23.248;2023-03-15T04:22:47;91354.09;;;3.35;57.76
53041;BME280;39326;42.650;23.248;2023-03-15T04:25:17;91353.81;;;3.47;57.21
53041;BME280;39326;42.650;23.248;2023-03-15T04:27:42;91351.97;;;3.51;57.56
53041;BME280;39326;42.650;23.248;2023-03-15T04:30:09;91352.00;;;3.58;57.39
53041;BME280;39326;42.650;23.248;2023-03-15T04:32:34;91341.91;;;3.68;56.72
53041;BME280;39326;42.650;23.248;2023-03-15T04:35:00;91344.94;;;3.73;57.13
53041;BME280;39326;42.650;23.248;2023-03-15T04:37:27;91333.59;;;3.66;56.96
53041;BME280;39326;42.650;23.248;2023-03-15T04:39:52;91343.75;;;3.64;58.07
53041;BME280;39326;42.650;23.248;2023-03-15T04:42:18;91334.72;;;3.65;58.22
53041;BME280;39326;42.650;23.248;2023-03-15T04:44:43;91344.47;;;3.60;57.78
53041;BME280;39326;42.650;23.248;2023-03-15T04:47:08;91341.84;;;3.57;59.03
53041;BME280;39326;42.650;23.248;2023-03-15T04:49:34;91338.44;;;3.60;59.50
53041;BME280;39326;42.650;23.248;2023-03-15T04:52:00;91340.38;;;3.63;59.02
53041;BME280;39326;42.650;23.248;2023-03-15T04:54:26;91333.94;;;3.57;59.40
53041;BME280;39326;42.650;23.248;2023-03-15T04:56:51;91330.91;;;3.58;59.12
53041;BME280;39326;42.650;23.248;2023-03-15T04:59:16;91336.97;;;3.63;58.98
53041;BME280;39326;42.650;23.248;2023-03-15T05:01:42;91337.34;;;3.65;59.36
53041;BME280;39326;42.650;23.248;2023-03-15T05:04:07;91335.13;;;3.70;58.91
53041;BME280;39326;42.650;23.248;2023-03-15T05:06:33;91333.25;;;3.71;58.49
53041;BME280;39326;42.650;23.248;2023-03-15T05:08:58;91333.59;;;3.62;60.01
53041;BME280;39326;42.650;23.248;2023-03-15T05:11:24;91337.34;;;3.65;59.72
53041;BME280;39326;42.650;23.248;2023-03-15T05:13:49;91344.94;;;3.73;59.05
53041;BME280;39326;42.650;23.248;2023-03-15T05:16:15;91350.22;;;3.73;58.97
53041;BME280;39326;42.650;23.248;2023-03-15T05:18:40;91338.53;;;3.74;59.35
53041;BME280;39326;42.650;23.248;2023-03-15T05:21:05;91342.69;;;3.75;58.10
53041;BME280;39326;42.650;23.248;2023-03-15T05:23:31;91349.84;;;3.78;59.50
53041;BME280;39326;42.650;23.248;2023-03-15T05:25:59;91335.91;;;3.78;58.67
53041;BME280;39326;42.650;23.248;2023-03-15T05:28:25;91328.69;;;3.64;59.76
53041;BME280;39326;42.650;23.248;2023-03-15T05:30:51;91330.63;;;3.74;59.22
53041;BME280;39326;42.650;23.248;2023-03-15T05:33:18;91329.50;;;3.79;58.94
53041;BME280;39326;42.650;23.248;2023-03-15T05:35:44;91331.38;;;3.75;59.02
53041;BME280;39326;42.650;23.248;2023-03-15T05:38:11;91332.94;;;3.86;58.19
53041;BME280;39326;42.650;23.248;2023-03-15T05:40:43;91336.69;;;3.85;58.05
53041;BME280;39326;42.650;23.248;2023-03-15T05:43:09;91324.31;;;3.93;58.05
53041;BME280;39326;42.650;23.248;2023-03-15T05:45:36;91322.06;;;3.99;58.04
53041;BME280;39326;42.650;23.248;2023-03-15T05:48:01;91313.44;;;4.05;57.83
53041;BME280;39326;42.650;23.248;2023-03-15T05:50:27;91314.19;;;4.09;57.62
53041;BME280;39326;42.650;23.248;2023-03-15T05:52:53;91321.00;;;4.14;58.18
53041;BME280;39326;42.650;23.248;2023-03-15T05:55:19;91312.34;;;4.21;58.14
53041;BME280;39326;42.650;23.248;2023-03-15T05:57:45;91316.91;;;4.24;58.24
53041;BME280;39326;42.650;23.248;2023-03-15T06:00:10;91315.78;;;4.32;58.52
53041;BME280;39326;42.650;23.248;2023-03-15T06:02:37;91313.53;;;4.37;58.47
53041;BME280;39326;42.650;23.248;2023-03-15T06:05:02;91315.44;;;4.44;58.58
53041;BME280;39326;42.650;23.248;2023-03-15T06:07:28;91324.09;;;4.30;59.23
53041;BME280;39326;42.650;23.248;2023-03-15T06:09:53;91328.22;;;4.35;58.94
53041;BME280;39326;42.650;23.248;2023-03-15T06:12:19;91319.22;;;4.54;57.81
53041;BME280;39326;42.650;23.248;2023-03-15T06:14:44;91334.28;;;4.43;58.69
53041;BME280;39326;42.650;23.248;2023-03-15T06:17:10;91339.19;;;4.44;58.24
53041;BME280;39326;42.650;23.248;2023-03-15T06:19:35;91336.94;;;4.53;57.61
53041;BME280;39326;42.650;23.248;2023-03-15T06:22:01;91338.47;;;4.65;57.92
53041;BME280;39326;42.650;23.248;2023-03-15T06:24:26;91335.09;;;4.75;57.69
53041;BME280;39326;42.650;23.248;2023-03-15T06:26:51;91329.81;;;4.86;56.44
53041;BME280;39326;42.650;23.248;2023-03-15T06:29:19;91328.69;;;4.94;56.80
53041;BME280;39326;42.650;23.248;2023-03-15T06:31:46;91319.25;;;4.86;57.44
53041;BME280;39326;42.650;23.248;2023-03-15T06:34:14;91312.84;;;4.94;57.33
53041;BME280;39326;42.650;23.248;2023-03-15T06:36:39;91323.41;;;4.69;58.09
53041;BME280;39326;42.650;23.248;2023-03-15T06:39:07;91325.66;;;4.71;57.37
53041;BME280;39326;42.650;23.248;2023-03-15T06:41:32;91326.41;;;4.64;57.66
53041;BME280;39326;42.650;23.248;2023-03-15T06:43:58;91320.00;;;4.90;57.52
53041;BME280;39326;42.650;23.248;2023-03-15T06:46:24;91316.97;;;4.91;56.71
53041;BME280;39326;42.650;23.248;2023-03-15T06:48:49;91319.25;;;5.21;56.27
53041;BME280;39326;42.650;23.248;2023-03-15T06:51:14;91330.94;;;5.10;55.93
53041;BME280;39326;42.650;23.248;2023-03-15T06:53:40;91334.38;;;5.00;55.67
53041;BME280;39326;42.650;23.248;2023-03-15T06:56:05;91323.03;;;5.24;55.64
53041;BME280;39326;42.650;23.248;2023-03-15T06:58:31;91319.59;;;5.52;54.78
53041;BME280;39326;42.650;23.248;2023-03-15T07:00:56;91318.41;;;5.67;54.24
53041;BME280;39326;42.650;23.248;2023-03-15T07:03:22;91315.28;;;5.97;52.99
53041;BME280;39326;42.650;23.248;2023-03-15T07:05:48;91313.41;;;5.98;53.13
53041;BME280;39326;42.650;23.248;2023-03-15T07:08:17;91318.59;;;6.26;52.77
53041;BME280;39326;42.650;23.248;2023-03-15T07:10:43;91314.69;;;6.56;52.22
53041;BME280;39326;42.650;23.248;2023-03-15T07:13:09;91327.13;;;6.59;50.90
53041;BME280;39326;42.650;23.248;2023-03-15T07:15:37;91328.94;;;6.73;50.47
53041;BME280;39326;42.650;23.248;2023-03-15T07:18:02;91323.41;;;6.46;50.39
53041;BME280;39326;42.650;23.248;2023-03-15T07:20:28;91320.28;;;6.65;49.96
53041;BME280;39326;42.650;23.248;2023-03-15T07:22:53;91331.25;;;6.71;50.08
53041;BME280;39326;42.650;23.248;2023-03-15T07:25:18;91336.53;;;6.71;49.89
53041;BME280;39326;42.650;23.248;2023-03-15T07:27:49;91333.03;;;6.81;49.85
53041;BME280;39326;42.650;23.248;2023-03-15T07:30:15;91318.06;;;6.53;49.48
53041;BME280;39326;42.650;23.248;2023-03-15T07:32:41;91310.91;;;6.50;49.51
53041;BME280;39326;42.650;23.248;2023-03-15T07:35:07;91316.91;;;6.54;49.06
53041;BME280;39326;42.650;23.248;2023-03-15T07:37:33;91322.56;;;6.67;48.43
53041;BME280;39326;42.650;23.248;2023-03-15T07:39:58;91319.06;;;6.80;48.13
53041;BME280;39326;42.650;23.248;2023-03-15T07:42:37;91318.03;;;7.19;47.27
53041;BME280;39326;42.650;23.248;2023-03-15T07:45:04;91317.84;;;7.41;47.45
53041;BME280;39326;42.650;23.248;2023-03-15T07:47:30;91308.56;;;7.59;46.47
53041;BME280;39326;42.650;23.248;2023-03-15T07:49:56;91308.22;;;7.57;46.48
53041;BME280;39326;42.650;23.248;2023-03-15T07:52:22;91304.00;;;7.98;46.09
53041;BME280;39326;42.650;23.248;2023-03-15T07:54:48;91304.13;;;8.21;45.92
53041;BME280;39326;42.650;23.248;2023-03-15T07:57:13;91304.09;;;7.87;45.19
53041;BME280;39326;42.650;23.248;2023-03-15T07:59:39;91296.84;;;8.25;44.61
53041;BME280;39326;42.650;23.248;2023-03-15T08:02:04;91296.94;;;8.49;44.09
53041;BME280;39326;42.650;23.248;2023-03-15T08:04:30;91308.44;;;8.69;44.23
53041;BME280;39326;42.650;23.248;2023-03-15T08:06:55;91307.75;;;8.65;44.77
53041;BME280;39326;42.650;23.248;2023-03-15T08:09:21;91310.22;;;8.79;44.26
53041;BME280;39326;42.650;23.248;2023-03-15T08:11:47;91304.56;;;9.00;44.41
53041;BME280;39326;42.650;23.248;2023-03-15T08:14:12;91305.72;;;8.99;44.21
53041;BME280;39326;42.650;23.248;2023-03-15T08:16:38;91300.28;;;8.83;43.27
53041;BME280;39326;42.650;23.248;2023-03-15T08:19:03;91292.31;;;9.07;43.19
53041;BME280;39326;42.650;23.248;2023-03-15T08:21:29;91290.53;;;9.47;42.95
53041;BME280;39326;42.650;23.248;2023-03-15T08:23:58;91292.78;;;9.48;42.25
53041;BME280;39326;42.650;23.248;2023-03-15T08:26:23;91293.84;;;9.31;42.59
53041;BME280;39326;42.650;23.248;2023-03-15T08:28:48;91287.00;;;9.07;42.30
53041;BME280;39326;42.650;23.248;2023-03-15T08:31:14;91293.06;;;9.07;42.39
53041;BME280;39326;42.650;23.248;2023-03-15T08:33:40;91290.41;;;9.54;42.23
53041;BME280;39326;42.650;23.248;2023-03-15T08:36:05;91279.19;;;9.86;41.75
53041;BME280;39326;42.650;23.248;2023-03-15T08:38:30;91274.72;;;10.03;40.92
53041;BME280;39326;42.650;23.248;2023-03-15T08:40:56;91268.53;;;10.10;40.97
53041;BME280;39326;42.650;23.248;2023-03-15T08:43:22;91256.66;;;10.30;40.99
53041;BME280;39326;42.650;23.248;2023-03-15T08:45:48;91263.34;;;10.39;40.00
53041;BME280;39326;42.650;23.248;2023-03-15T08:48:15;91265.56;;;10.24;41.25
53041;BME280;39326;42.650;23.248;2023-03-15T08:50:41;91272.75;;;10.27;41.32
53041;BME280;39326;42.650;23.248;2023-03-15T08:53:07;91277.59;;;10.12;40.95
53041;BME280;39326;42.650;23.248;2023-03-15T08:55:33;91273.69;;;10.17;40.60
53041;BME280;39326;42.650;23.248;2023-03-15T08:57:58;91286.75;;;10.11;40.73
53041;BME280;39326;42.650;23.248;2023-03-15T09:00:26;91285.41;;;9.99;41.35
53041;BME280;39326;42.650;23.248;2023-03-15T09:02:52;91285.22;;;9.90;41.30
53041;BME280;39326;42.650;23.248;2023-03-15T09:05:19;91275.19;;;9.78;42.56
53041;BME280;39326;42.650;23.248;2023-03-15T09:07:45;91287.22;;;10.26;41.68
53041;BME280;39326;42.650;23.248;2023-03-15T09:10:12;91291.75;;;10.45;41.03
53041;BME280;39326;42.650;23.248;2023-03-15T09:12:46;91293.84;;;10.38;40.43
53041;BME280;39326;42.650;23.248;2023-03-15T09:15:13;91281.97;;;10.22;40.31
53041;BME280;39326;42.650;23.248;2023-03-15T09:17:39;91279.50;;;10.12;40.91
53041;BME280;39326;42.650;23.248;2023-03-15T09:20:07;91283.31;;;9.91;41.21
53041;BME280;39326;42.650;23.248;2023-03-15T09:22:41;91284.38;;;9.73;40.74
53041;BME280;39326;42.650;23.248;2023-03-15T09:25:07;91280.97;;;9.73;41.60
53041;BME280;39326;42.650;23.248;2023-03-15T09:27:34;91288.97;;;9.49;41.98
53041;BME280;39326;42.650;23.248;2023-03-15T09:30:00;91288.13;;;9.76;42.27
53041;BME280;39326;42.650;23.248;2023-03-15T09:32:26;91284.06;;;9.91;41.43
53041;BME280;39326;42.650;23.248;2023-03-15T09:34:51;91288.97;;;9.93;41.26
53041;BME280;39326;42.650;23.248;2023-03-15T09:37:17;91283.31;;;9.91;40.96
53041;BME280;39326;42.650;23.248;2023-03-15T09:39:42;91273.81;;;9.90;41.85
53041;BME280;39326;42.650;23.248;2023-03-15T09:42:19;91271.91;;;9.90;41.56
53041;BME280;39326;42.650;23.248;2023-03-15T09:44:49;91267.53;;;10.00;41.19
53041;BME280;39326;42.650;23.248;2023-03-15T09:47:23;91268.28;;;10.00;41.38
53041;BME280;39326;42.650;23.248;2023-03-15T09:49:57;91260.25;;;10.04;42.19
53041;BME280;39326;42.650;23.248;2023-03-15T09:52:36;91261.25;;;9.90;41.37
53041;BME280;39326;42.650;23.248;2023-03-15T09:55:17;91251.25;;;9.94;41.11
53041;BME280;39326;42.650;23.248;2023-03-15T09:57:57;91254.81;;;9.88;41.27
53041;BME280;39326;42.650;23.248;2023-03-15T10:00:40;91256.38;;;9.65;41.48
53041;BME280;39326;42.650;23.248;2023-03-15T10:03:17;91256.91;;;9.76;41.57
53041;BME280;39326;42.650;23.248;2023-03-15T10:05:47;91266.72;;;9.83;42.77
53041;BME280;39326;42.650;23.248;2023-03-15T10:08:16;91265.19;;;9.82;42.47
53041;BME280;39326;42.650;23.248;2023-03-15T10:11:13;91267.41;;;10.07;42.20
53041;BME280;39326;42.650;23.248;2023-03-15T10:16:33;91263.44;;;10.35;41.35
53041;BME280;39326;42.650;23.248;2023-03-15T10:19:08;91260.56;;;10.62;40.98
53041;BME280;39326;42.650;23.248;2023-03-15T10:24:17;91265.09;;;10.29;41.05
53041;BME280;39326;42.650;23.248;2023-03-15T10:26:43;91262.13;;;10.43;41.28
53041;BME280;39326;42.650;23.248;2023-03-15T10:29:14;91257.56;;;10.24;40.99
53041;BME280;39326;42.650;23.248;2023-03-15T10:31:43;91247.75;;;10.21;41.26
53041;BME280;39326;42.650;23.248;2023-03-15T10:34:11;91248.72;;;10.47;41.09
53041;BME280;39326;42.650;23.248;2023-03-15T10:36:43;91257.38;;;10.51;41.05
53041;BME280;39326;42.650;23.248;2023-03-15T10:39:10;91261.97;;;10.50;41.09
53041;BME280;39326;42.650;23.248;2023-03-15T10:41:40;91261.84;;;10.38;40.75
53041;BME280;39326;42.650;23.248;2023-03-15T10:44:12;91259.66;;;10.32;41.08
53041;BME280;39326;42.650;23.248;2023-03-15T10:46:37;91256.72;;;10.47;41.30
53041;BME280;39326;42.650;23.248;2023-03-15T10:49:15;91253.44;;;10.39;40.81
53041;BME280;39326;42.650;23.248;2023-03-15T10:51:45;91257.16;;;10.05;41.98
53041;BME280;39326;42.650;23.248;2023-03-15T10:54:12;91269.94;;;10.14;41.99
53041;BME280;39326;42.650;23.248;2023-03-15T10:57:04;91270.94;;;10.00;41.75
53041;BME280;39326;42.650;23.248;2023-03-15T10:59:33;91267.47;;;9.84;41.73
53041;BME280;39326;42.650;23.248;2023-03-15T11:04:40;91253.66;;;9.69;42.11
53041;BME280;39326;42.650;23.248;2023-03-15T11:07:06;91262.00;;;9.71;42.53
53041;BME280;39326;42.650;23.248;2023-03-15T11:09:40;91258.63;;;9.67;42.81
53041;BME280;39326;42.650;23.248;2023-03-15T11:12:08;91255.72;;;9.38;43.36
53041;BME280;39326;42.650;23.248;2023-03-15T11:17:02;91246.88;;;8.97;45.80
53041;BME280;39326;42.650;23.248;2023-03-15T11:19:31;91243.28;;;9.31;45.75
53041;BME280;39326;42.650;23.248;2023-03-15T11:22:00;91255.88;;;9.50;46.25
53041;BME280;39326;42.650;23.248;2023-03-15T11:24:28;91262.97;;;9.14;50.16
53041;BME280;39326;42.650;23.248;2023-03-15T11:26:58;91251.00;;;9.02;49.70
53041;BME280;39326;42.650;23.248;2023-03-15T11:29:33;91258.72;;;8.93;49.27
53041;BME280;39326;42.650;23.248;2023-03-15T11:32:02;91257.53;;;8.97;48.82
53041;BME280;39326;42.650;23.248;2023-03-15T11:37:47;91238.97;;;8.94;51.52
53041;BME280;39326;42.650;23.248;2023-03-15T11:40:16;91233.78;;;9.10;50.61
53041;BME280;39326;42.650;23.248;2023-03-15T11:42:48;91237.22;;;9.07;52.05
53041;BME280;39326;42.650;23.248;2023-03-15T11:45:26;91238.50;;;8.99;50.58
53041;BME280;39326;42.650;23.248;2023-03-15T11:47:57;91229.94;;;9.11;49.15
53041;BME280;39326;42.650;23.248;2023-03-15T11:50:25;91238.63;;;9.15;48.36
53041;BME280;39326;42.650;23.248;2023-03-15T11:52:51;91234.47;;;9.14;47.93
53041;BME280;39326;42.650;23.248;2023-03-15T11:55:23;91237.59;;;9.09;49.42
53041;BME280;39326;42.650;23.248;2023-03-15T11:57:49;91231.28;;;9.23;49.11
53041;BME280;39326;42.650;23.248;2023-03-15T12:02:57;91234.06;;;9.16;49.02
53041;BME280;39326;42.650;23.248;2023-03-15T12:08:49;91228.91;;;9.05;51.07
53041;BME280;39326;42.650;23.248;2023-03-15T12:14:01;91232.72;;;9.04;50.89
53041;BME280;39326;42.650;23.248;2023-03-15T12:16:36;91225.31;;;8.92;50.19
53041;BME280;39326;42.650;23.248;2023-03-15T12:19:18;91229.47;;;8.93;50.38
53041;BME280;39326;42.650;23.248;2023-03-15T12:21:49;91227.00;;;8.82;50.05
53041;BME280;39326;42.650;23.248;2023-03-15T12:24:24;91221.16;;;8.91;49.52
53041;BME280;39326;42.650;23.248;2023-03-15T12:27:18;91215.69;;;9.02;50.25
53041;BME280;39326;42.650;23.248;2023-03-15T12:29:45;91217.69;;;8.94;50.22
53041;BME280;39326;42.650;23.248;2023-03-15T12:32:16;91221.66;;;8.82;49.32
53041;BME280;39326;42.650;23.248;2023-03-15T12:34:51;91216.59;;;8.91;50.23
53041;BME280;39326;42.650;23.248;2023-03-15T12:37:25;91208.63;;;8.91;50.00
53041;BME280;39326;42.650;23.248;2023-03-15T12:47:49;91200.06;;;8.80;48.45
53041;BME280;39326;42.650;23.248;2023-03-15T12:55:36;91193.63;;;8.54;49.21
53041;BME280;39326;42.650;23.248;2023-03-15T12:58:02;91192.13;;;8.53;49.11
53041;BME280;39326;42.650;23.248;2023-03-15T13:00:30;91179.38;;;8.41;49.12
53041;BME280;39326;42.650;23.248;2023-03-15T13:03:13;91187.72;;;8.43;49.16
53041;BME280;39326;42.650;23.248;2023-03-15T13:06:09;91188.38;;;8.51;48.92
53041;BME280;39326;42.650;23.248;2023-03-15T13:12:07;91185.91;;;8.36;51.08
53041;BME280;39326;42.650;23.248;2023-03-15T13:17:12;91182.84;;;8.38;50.84
53041;BME280;39326;42.650;23.248;2023-03-15T13:19:44;91180.94;;;8.65;49.68
53041;BME280;39326;42.650;23.248;2023-03-15T13:25:10;91193.25;;;8.79;49.07
53041;BME280;39326;42.650;23.248;2023-03-15T13:27:58;91194.69;;;8.60;49.62
53041;BME280;39326;42.650;23.248;2023-03-15T13:35:41;91207.34;;;8.53;52.43
53041;BME280;39326;42.650;23.248;2023-03-15T13:38:24;91205.94;;;8.44;52.82
53041;BME280;39326;42.650;23.248;2023-03-15T13:40:50;91195.13;;;8.28;53.16
53041;BME280;39326;42.650;23.248;2023-03-15T13:43:15;91201.94;;;8.29;53.35
53041;BME280;39326;42.650;23.248;2023-03-15T13:45:41;91194.84;;;8.19;54.39
53041;BME280;39326;42.650;23.248;2023-03-15T13:48:07;91196.97;;;8.31;54.23
53041;BME280;39326;42.650;23.248;2023-03-15T13:50:34;91198.97;;;7.97;56.22
53041;BME280;39326;42.650;23.248;2023-03-15T13:52:59;91207.94;;;8.06;56.66
53041;BME280;39326;42.650;23.248;2023-03-15T13:55:31;91207.59;;;8.04;57.78
53041;BME280;39326;42.650;23.248;2023-03-15T13:57:58;91205.47;;;7.92;57.88
53041;BME280;39326;42.650;23.248;2023-03-15T14:00:25;91224.63;;;7.76;59.15
53041;BME280;39326;42.650;23.248;2023-03-15T14:02:55;91219.00;;;7.71;59.01
53041;BME280;39326;42.650;23.248;2023-03-15T14:05:27;91220.19;;;7.66;58.80
53041;BME280;39326;42.650;23.248;2023-03-15T14:08:05;91220.28;;;7.59;59.41